Time;durP1;ratioP1;P1;durP2;ratioP2;P2;SDS_P1;SDS_P2;PMS_P1;PMS_P2;Temp;Humidity;BMP_temperature;BMP_pressure;BME280_temperature;BME280_humidity;BME280_pressure;Samples;Min_cycle;Max_cycle;Signal;HPM_P1;HPM_P2
2022/08/04 00:01:52;;;;;;;3.17;1.70;;;;;23.90;94170.00;;;;7396074;19;20154;-73
2022/08/04 00:04:38;;;;;;;2.78;1.90;;;;;24.00;94172.00;;;;7393110;19;20149;-75
2022/08/04 00:07:40;;;;;;;2.63;1.77;;;;;24.00;94170.00;;;;7394010;19;20172;-74
2022/08/04 00:10:19;;;;;;;3.15;2.05;;;;;24.00;94167.00;;;;7397214;19;20131;-75
2022/08/04 00:12:53;;;;;;;5.57;2.10;;;;;23.90;94163.00;;;;7395525;19;20624;-75
2022/08/04 00:15:30;;;;;;;4.35;1.80;;;;;23.90;94162.00;;;;7392321;19;20616;-76
2022/08/04 00:18:13;;;;;;;3.10;1.80;;;;;24.10;94160.00;;;;7395022;19;20622;-74
2022/08/04 00:20:49;;;;;;;2.20;2.00;;;;;24.20;94153.00;;;;7394481;19;20530;-75
2022/08/04 00:23:18;;;;;;;2.97;2.05;;;;;24.20;94153.00;;;;7394921;19;20153;-75
2022/08/04 00:25:45;;;;;;;1.98;1.77;;;;;24.10;94153.00;;;;7395409;19;20218;-75
2022/08/04 00:28:22;;;;;;;7.28;2.22;;;;;24.20;94146.00;;;;7396246;19;21583;-74
2022/08/04 00:30:51;;;;;;;2.03;1.90;;;;;24.20;94155.00;;;;7391943;19;20145;-73
2022/08/04 00:33:20;;;;;;;2.20;2.00;;;;;24.20;94154.00;;;;7394400;19;20133;-74
2022/08/04 00:35:56;;;;;;;2.88;2.20;;;;;24.30;94152.00;;;;7397692;19;20668;-77
2022/08/04 00:38:24;;;;;;;3.05;1.90;;;;;24.30;94152.00;;;;7396814;19;20204;-74
2022/08/04 00:41:01;;;;;;;2.38;1.85;;;;;24.40;94149.00;;;;7392970;19;20149;-76
2022/08/04 00:44:07;;;;;;;1.88;1.70;;;;;24.50;94155.00;;;;7394836;19;20606;-74
2022/08/04 00:46:54;;;;;;;2.85;2.10;;;;;24.50;94151.00;;;;7393058;19;20167;-76
2022/08/04 00:49:52;;;;;;;2.47;1.90;;;;;24.50;94151.00;;;;7394553;19;20224;-73
2022/08/04 00:52:37;;;;;;;5.18;2.17;;;;;24.40;94153.00;;;;7396929;19;20136;-76
2022/08/04 00:55:36;;;;;;;7.53;2.22;;;;;24.50;94159.00;;;;7390772;19;20671;-75
2022/08/04 00:58:21;;;;;;;2.10;1.90;;;;;24.40;94155.00;;;;7393816;19;20583;-76
2022/08/04 01:01:05;;;;;;;3.50;2.28;;;;;24.30;94152.00;;;;7393453;19;20132;-79
2022/08/04 01:03:56;;;;;;;2.95;2.00;;;;;24.30;94153.00;;;;7391812;19;20172;-78
2022/08/04 01:06:41;;;;;;;2.13;1.77;;;;;24.30;94150.00;;;;7392433;19;20783;-77
2022/08/04 01:09:17;;;;;;;3.72;2.20;;;;;24.20;94154.00;;;;7392210;19;20220;-78
2022/08/04 01:11:55;;;;;;;2.33;2.10;;;;;24.10;94154.00;;;;7393839;19;20185;-77
2022/08/04 01:14:43;;;;;;;1.95;1.83;;;;;24.00;94157.00;;;;7393920;19;20588;-78
2022/08/04 01:18:08;;;;;;;7.00;1.90;;;;;24.00;94160.00;;;;7392187;19;20160;-78
2022/08/04 01:21:05;;;;;;;2.17;2.08;;;;;24.10;94159.00;;;;7392490;19;20161;-78
2022/08/04 01:23:55;;;;;;;2.15;1.92;;;;;23.90;94157.00;;;;7389959;19;20148;-79
2022/08/04 01:26:46;;;;;;;2.95;1.90;;;;;24.00;94156.00;;;;7394228;19;20148;-78
2022/08/04 01:29:29;;;;;;;2.95;2.10;;;;;23.90;94162.00;;;;7392596;19;20243;-76
2022/08/04 01:32:31;;;;;;;3.25;1.70;;;;;23.80;94161.00;;;;7393331;19;20129;-77
2022/08/04 01:35:14;;;;;;;3.40;1.98;;;;;24.00;94158.00;;;;7390096;19;20129;-76
2022/08/04 01:38:10;;;;;;;4.90;2.10;;;;;24.00;94152.00;;;;7392697;19;20313;-77
2022/08/04 01:40:51;;;;;;;2.50;1.90;;;;;23.90;94153.00;;;;7391536;19;20599;-79
2022/08/04 01:43:20;;;;;;;5.38;1.95;;;;;23.80;94148.00;;;;7391724;19;20152;-77
2022/08/04 01:45:59;;;;;;;3.00;2.10;;;;;23.70;94147.00;;;;7393160;19;20172;-77
2022/08/04 01:48:28;;;;;;;8.68;2.08;;;;;23.60;94146.00;;;;7389133;19;20141;-79
2022/08/04 01:51:07;;;;;;;2.00;1.80;;;;;23.40;94138.00;;;;7389876;19;20132;-79
2022/08/04 01:53:40;;;;;;;4.28;1.80;;;;;23.30;94141.00;;;;7391969;19;20168;-77
2022/08/04 01:56:14;;;;;;;4.28;2.00;;;;;23.20;94149.00;;;;7392404;19;20137;-78
2022/08/04 01:58:42;;;;;;;2.25;2.05;;;;;23.00;94148.00;;;;7390361;19;20144;-78
2022/08/04 02:01:12;;;;;;;1.73;1.63;;;;;23.20;94148.00;;;;7390931;19;20169;-78
2022/08/04 02:03:46;;;;;;;2.88;2.00;;;;;22.90;94136.00;;;;7392817;19;20512;-79
2022/08/04 02:06:45;;;;;;;2.78;2.13;;;;;22.80;94146.00;;;;7395902;19;20691;-78
2022/08/04 02:09:33;;;;;;;5.55;2.08;;;;;22.80;94140.00;;;;7398282;19;20514;-78
2022/08/04 02:12:55;;;;;;;2.45;2.25;;;;;22.80;94142.00;;;;7400920;19;20855;-78
2022/08/04 02:16:01;;;;;;;2.15;1.90;;;;;22.80;94132.00;;;;7396197;19;20445;-78
2022/08/04 02:18:50;;;;;;;2.00;1.80;;;;;23.00;94134.00;;;;7394261;19;20513;-77
2022/08/04 02:21:32;;;;;;;3.25;1.90;;;;;23.10;94133.00;;;;7398156;19;20141;-77
2022/08/04 02:24:14;;;;;;;3.28;2.00;;;;;23.10;94133.00;;;;7399064;19;20133;-77
2022/08/04 02:26:52;;;;;;;2.33;1.95;;;;;23.20;94131.00;;;;7397596;19;20140;-77
2022/08/04 02:29:34;;;;;;;2.38;2.00;;;;;23.30;94125.00;;;;7398314;19;20153;-77
2022/08/04 02:32:20;;;;;;;2.55;1.67;;;;;23.20;94130.00;;;;7399741;19;20149;-76
2022/08/04 02:34:57;;;;;;;2.10;1.90;;;;;23.20;94124.00;;;;7398564;19;20196;-77
2022/08/04 02:37:32;;;;;;;4.22;1.63;;;;;23.30;94114.00;;;;7396970;19;20478;-78
2022/08/04 02:40:03;;;;;;;2.83;1.70;;;;;23.20;94113.00;;;;7398231;19;20136;-75
2022/08/04 02:42:38;;;;;;;4.80;1.80;;;;;23.30;94114.00;;;;7397111;19;20148;-78
2022/08/04 02:45:07;;;;;;;3.15;1.95;;;;;23.30;94114.00;;;;7396557;19;20615;-77
2022/08/04 02:47:35;;;;;;;4.40;1.80;;;;;23.20;94120.00;;;;7397094;19;20639;-75
2022/08/04 02:50:33;;;;;;;1.80;1.70;;;;;23.20;94111.00;;;;7395056;19;20502;-77
2022/08/04 02:53:03;;;;;;;2.03;1.83;;;;;23.20;94113.00;;;;7397410;19;20615;-77
2022/08/04 02:55:38;;;;;;;1.67;1.58;;;;;23.30;94105.00;;;;7396623;19;20590;-76
2022/08/04 02:58:19;;;;;;;2.20;2.00;;;;;23.30;94111.00;;;;7398905;19;20143;-79
2022/08/04 03:00:54;;;;;;;1.80;1.70;;;;;23.30;94107.00;;;;7392852;19;20216;-78
2022/08/04 03:03:37;;;;;;;1.83;1.48;;;;;23.20;94107.00;;;;7397394;19;20145;-78
2022/08/04 03:06:11;;;;;;;2.25;1.88;;;;;23.20;94113.00;;;;7399229;19;20125;-77
2022/08/04 03:09:07;;;;;;;1.70;1.60;;;;;23.20;94105.00;;;;7394248;19;20149;-78
2022/08/04 03:11:56;;;;;;;2.22;2.03;;;;;23.20;94105.00;;;;7397234;19;20156;-78
2022/08/04 03:14:52;;;;;;;2.05;1.60;;;;;23.30;94102.00;;;;7398419;19;20705;-77
2022/08/04 03:17:49;;;;;;;5.75;1.60;;;;;23.30;94110.00;;;;7392705;19;20538;-76
2022/08/04 03:20:45;;;;;;;5.30;2.08;;;;;23.30;94102.00;;;;7398473;19;20137;-77
2022/08/04 03:23:41;;;;;;;1.75;1.65;;;;;23.30;94106.00;;;;7397230;19;20137;-77
2022/08/04 03:26:21;;;;;;;1.90;1.80;;;;;23.30;94110.00;;;;7396930;19;20152;-77
2022/08/04 03:28:59;;;;;;;3.97;1.70;;;;;23.40;94112.00;;;;7395628;19;20211;-78
2022/08/04 03:32:00;;;;;;;2.00;1.75;;;;;23.50;94110.00;;;;7396695;19;20659;-78
2022/08/04 03:34:52;;;;;;;5.38;1.60;;;;;23.30;94105.00;;;;7393820;19;20152;-77
2022/08/04 03:37:57;;;;;;;3.63;1.60;;;;;23.30;94112.00;;;;7395260;19;20604;-78
2022/08/04 03:40:52;;;;;;;3.97;1.70;;;;;23.10;94114.00;;;;7393849;19;20604;-78
2022/08/04 03:44:05;;;;;;;4.22;1.77;;;;;23.00;94119.00;;;;7395672;19;20608;-78
2022/08/04 03:46:48;;;;;;;3.17;1.90;;;;;23.10;94120.00;;;;7394961;19;20140;-77
2022/08/04 03:49:42;;;;;;;4.47;1.58;;;;;23.10;94122.00;;;;7396220;19;20129;-79
2022/08/04 03:53:08;;;;;;;1.88;1.70;;;;;22.90;94115.00;;;;7396525;19;20174;-79
2022/08/04 03:55:57;;;;;;;2.45;1.90;;;;;22.70;94109.00;;;;7394729;19;20567;-78
2022/08/04 03:59:08;;;;;;;3.95;1.70;;;;;22.50;94116.00;;;;7395568;19;20132;-77
2022/08/04 04:02:07;;;;;;;3.58;1.88;;;;;22.60;94115.00;;;;7394316;19;20540;-79
2022/08/04 04:05:18;;;;;;;1.95;1.75;;;;;22.40;94116.00;;;;7394075;19;20497;-77
2022/08/04 04:08:24;;;;;;;3.58;1.70;;;;;22.30;94114.00;;;;7397281;19;20490;-76
2022/08/04 04:11:17;;;;;;;2.80;2.00;;;;;22.30;94110.00;;;;7393017;19;20607;-78
2022/08/04 04:13:53;;;;;;;1.75;1.65;;;;;22.30;94108.00;;;;7396060;19;20215;-77
2022/08/04 04:16:58;;;;;;;3.33;1.67;;;;;22.30;94112.00;;;;7392874;19;20136;-78
2022/08/04 04:19:49;;;;;;;2.30;1.80;;;;;22.20;94106.00;;;;7394169;19;20499;-78
2022/08/04 04:22:32;;;;;;;1.90;1.60;;;;;22.10;94105.00;;;;7396791;19;20624;-78
2022/08/04 04:25:40;;;;;;;1.90;1.65;;;;;22.00;94102.00;;;;7395226;19;20204;-77
2022/08/04 04:28:56;;;;;;;2.50;1.80;;;;;22.20;94110.00;;;;7396357;19;20480;-77
2022/08/04 04:31:56;;;;;;;1.73;1.63;;;;;22.20;94112.00;;;;7393910;19;20149;-77
2022/08/04 04:34:55;;;;;;;2.08;1.92;;;;;22.30;94113.00;;;;7393964;19;20184;-77
2022/08/04 04:37:45;;;;;;;2.15;1.70;;;;;22.40;94114.00;;;;7393921;19;20604;-77
2022/08/04 04:40:41;;;;;;;2.95;1.67;;;;;22.40;94114.00;;;;7397000;19;20133;-77
2022/08/04 04:43:46;;;;;;;2.35;1.58;;;;;22.70;94114.00;;;;7394709;19;20157;-78
2022/08/04 04:46:36;;;;;;;2.42;1.70;;;;;22.70;94114.00;;;;7388231;19;21739;-76
2022/08/04 04:49:48;;;;;;;1.83;1.70;;;;;22.80;94115.00;;;;7393453;19;20523;-77
2022/08/04 04:53:15;;;;;;;1.73;1.63;;;;;22.80;94122.00;;;;7390395;19;20733;-77
2022/08/04 04:55:56;;;;;;;2.15;1.75;;;;;22.80;94119.00;;;;7388075;19;20195;-78
2022/08/04 04:58:33;;;;;;;1.92;1.83;;;;;22.80;94115.00;;;;7394503;19;20168;-76
2022/08/04 05:01:36;;;;;;;3.67;1.90;;;;;22.90;94120.00;;;;7398679;19;20133;-76
2022/08/04 05:08:20;;;;;;;2.88;2.05;;;;;23.60;94108.00;;;;7383018;19;20201;-75
2022/08/04 05:11:49;;;;;;;2.15;1.80;;;;;23.90;94116.00;;;;7398817;19;20491;-76
2022/08/04 05:14:43;;;;;;;3.05;2.13;;;;;24.10;94106.00;;;;7393379;19;20587;-78
2022/08/04 05:17:35;;;;;;;3.92;1.90;;;;;24.40;94106.00;;;;7391917;19;20120;-78
2022/08/04 05:20:25;;;;;;;2.15;1.95;;;;;24.70;94105.00;;;;7391846;19;20141;-76
2022/08/04 05:23:15;;;;;;;2.45;2.20;;;;;25.00;94104.00;;;;7393281;19;20209;-77
2022/08/04 05:26:00;;;;;;;3.05;2.10;;;;;25.20;94111.00;;;;7391806;19;20160;-77
2022/08/04 05:28:41;;;;;;;2.47;1.70;;;;;25.50;94103.00;;;;7394128;19;20125;-77
2022/08/04 05:31:22;;;;;;;2.95;1.88;;;;;25.70;94109.00;;;;7390336;19;20610;-78
2022/08/04 05:34:11;;;;;;;1.80;1.70;;;;;25.80;94109.00;;;;7390675;19;20140;-78
2022/08/04 05:37:02;;;;;;;1.70;1.60;;;;;25.90;94112.00;;;;7387870;19;20136;-77
2022/08/04 05:39:42;;;;;;;2.90;1.70;;;;;26.20;94103.00;;;;7391473;19;20142;-79
2022/08/04 05:42:16;;;;;;;2.53;1.73;;;;;26.30;94108.00;;;;7394451;19;20136;-78
2022/08/04 05:44:50;;;;;;;2.65;2.00;;;;;26.30;94108.00;;;;7391632;19;20132;-79
2022/08/04 05:47:20;;;;;;;1.95;1.70;;;;;26.30;94109.00;;;;7389864;19;20159;-79
2022/08/04 05:49:49;;;;;;;1.95;1.83;;;;;26.70;94107.00;;;;7391206;19;20146;-78
2022/08/04 05:52:33;;;;;;;1.80;1.70;;;;;26.70;94108.00;;;;7393415;19;20148;-78
2022/08/04 05:55:04;;;;;;;3.30;1.80;;;;;26.80;94115.00;;;;7390862;19;20133;-80
2022/08/04 05:57:44;;;;;;;1.90;1.80;;;;;26.90;94115.00;;;;7391119;19;20253;-78
2022/08/04 06:00:12;;;;;;;2.50;1.70;;;;;26.90;94117.00;;;;7391440;19;20136;-77
2022/08/04 06:03:09;;;;;;;2.53;2.00;;;;;27.10;94116.00;;;;7387126;19;20176;-78
2022/08/04 06:05:37;;;;;;;2.10;1.75;;;;;27.10;94119.00;;;;7392144;19;20221;-79
2022/08/04 06:08:12;;;;;;;1.90;1.80;;;;;27.20;94115.00;;;;7392040;19;20151;-77
2022/08/04 06:10:43;;;;;;;4.95;2.08;;;;;27.30;94122.00;;;;7389416;19;20197;-78
2022/08/04 06:13:14;;;;;;;2.45;2.05;;;;;27.40;94122.00;;;;7390003;19;20212;-79
2022/08/04 06:16:12;;;;;;;1.90;1.80;;;;;27.40;94121.00;;;;7390439;19;20633;-77
2022/08/04 06:19:09;;;;;;;1.83;1.67;;;;;27.50;94115.00;;;;7387660;19;20646;-76
2022/08/04 06:22:12;;;;;;;2.38;1.90;;;;;27.70;94114.00;;;;7392949;19;20137;-78
2022/08/04 06:24:47;;;;;;;2.85;1.95;;;;;27.80;94120.00;;;;7389106;19;20153;-78
2022/08/04 06:27:23;;;;;;;4.05;2.10;;;;;28.10;94117.00;;;;7390504;19;20137;-79
2022/08/04 06:29:56;;;;;;;2.20;1.88;;;;;28.00;94118.00;;;;7389640;19;20157;-78
2022/08/04 06:32:46;;;;;;;3.83;1.70;;;;;28.10;94118.00;;;;7391088;19;20547;-79
2022/08/04 06:35:20;;;;;;;2.60;2.03;;;;;28.40;94120.00;;;;7388001;19;20152;-80
2022/08/04 06:37:56;;;;;;;2.35;2.00;;;;;28.50;94118.00;;;;7391189;19;20216;-79
2022/08/04 06:40:29;;;;;;;3.80;2.30;;;;;28.70;94123.00;;;;7391347;19;20200;-78
2022/08/04 06:43:07;;;;;;;3.65;2.05;;;;;28.80;94123.00;;;;7389725;19;20630;-78
2022/08/04 06:45:40;;;;;;;2.45;1.85;;;;;29.00;94124.00;;;;7389104;19;20173;-78
2022/08/04 06:48:16;;;;;;;1.90;1.80;;;;;29.20;94125.00;;;;7389691;19;20140;-78
2022/08/04 06:50:46;;;;;;;2.60;2.10;;;;;29.30;94130.00;;;;7388030;19;20513;-78
2022/08/04 06:53:43;;;;;;;1.95;1.85;;;;;29.50;94129.00;;;;7398467;19;20450;-78
2022/08/04 06:56:12;;;;;;;3.38;2.00;;;;;29.70;94125.00;;;;7395733;19;20591;-78
2022/08/04 06:58:48;;;;;;;9.18;2.00;;;;;29.90;94129.00;;;;7393324;19;20619;-78
2022/08/04 07:01:19;;;;;;;2.42;2.22;;;;;30.10;94130.00;;;;7393806;19;20148;-76
2022/08/04 07:03:56;;;;;;;5.82;2.05;;;;;30.30;94132.00;;;;7397694;19;20623;-78
2022/08/04 07:06:24;;;;;;;2.10;2.00;;;;;30.40;94133.00;;;;7398750;19;20128;-78
2022/08/04 07:08:55;;;;;;;3.10;2.08;;;;;30.50;94123.00;;;;7395064;19;20492;-78
2022/08/04 07:11:31;;;;;;;2.78;2.10;;;;;30.90;94128.00;;;;7394951;19;20152;-78
2022/08/04 07:14:14;;;;;;;2.42;2.22;;;;;31.10;94126.00;;;;7396961;19;20140;-77
2022/08/04 07:16:49;;;;;;;3.65;2.08;;;;;31.00;94126.00;;;;7392543;19;20174;-77
2022/08/04 07:19:23;;;;;;;4.70;2.25;;;;;31.00;94127.00;;;;7394053;19;20508;-79
2022/08/04 07:22:10;;;;;;;2.40;1.80;;;;;31.10;94119.00;;;;7396049;19;20148;-76
2022/08/04 07:24:58;;;;;;;2.83;1.98;;;;;31.30;94130.00;;;;7396083;19;20222;-77
2022/08/04 07:27:39;;;;;;;2.13;2.03;;;;;31.40;94117.00;;;;7396439;19;20501;-78
2022/08/04 07:30:24;;;;;;;4.05;1.95;;;;;31.50;94117.00;;;;7396215;19;20144;-79
2022/08/04 07:32:59;;;;;;;3.50;2.10;;;;;31.60;94118.00;;;;7395729;19;20622;-77
2022/08/04 07:35:28;;;;;;;2.17;2.08;;;;;31.70;94118.00;;;;7393732;19;20778;-78
2022/08/04 07:38:16;;;;;;;2.53;2.33;;;;;31.80;94120.00;;;;7396712;19;20124;-79
2022/08/04 07:40:55;;;;;;;2.97;2.22;;;;;32.00;94116.00;;;;7393512;19;20613;-76
2022/08/04 07:43:23;;;;;;;2.30;2.10;;;;;32.10;94122.00;;;;7396516;19;20622;-77
2022/08/04 07:45:57;;;;;;;2.42;2.22;;;;;32.20;94125.00;;;;7397579;19;20163;-78
2022/08/04 07:48:25;;;;;;;4.03;2.13;;;;;32.40;94121.00;;;;7394247;19;20144;-78
2022/08/04 07:50:53;;;;;;;2.30;2.10;;;;;32.40;94128.00;;;;7395370;19;20153;-76
2022/08/04 07:53:33;;;;;;;2.50;2.15;;;;;32.40;94128.00;;;;7397593;19;20121;-78
2022/08/04 07:56:21;;;;;;;3.72;2.22;;;;;32.60;94131.00;;;;7393142;19;20158;-76
2022/08/04 07:58:55;;;;;;;2.33;2.20;;;;;32.70;94125.00;;;;7395644;19;20156;-76
2022/08/04 08:01:24;;;;;;;3.67;2.53;;;;;32.70;94126.00;;;;7393970;19;20550;-78
2022/08/04 08:03:54;;;;;;;2.42;2.22;;;;;32.80;94128.00;;;;7396454;19;20513;-77
2022/08/04 08:06:28;;;;;;;2.25;2.10;;;;;32.90;94129.00;;;;7393300;19;20151;-76
2022/08/04 08:09:12;;;;;;;2.80;2.60;;;;;33.20;94133.00;;;;7394824;19;20682;-77
2022/08/04 08:11:56;;;;;;;6.80;2.50;;;;;33.30;94134.00;;;;7394815;19;20180;-79
2022/08/04 08:14:45;;;;;;;2.70;2.50;;;;;33.40;94134.00;;;;7395274;19;20148;-78
2022/08/04 08:17:19;;;;;;;4.50;2.63;;;;;33.50;94124.00;;;;7392328;19;20531;-80
2022/08/04 08:19:54;;;;;;;8.02;2.50;;;;;33.70;94127.00;;;;7392027;19;20176;-77
2022/08/04 08:22:30;;;;;;;5.65;2.63;;;;;33.70;94127.00;;;;7396638;19;20141;-77
2022/08/04 08:24:58;;;;;;;5.18;2.42;;;;;34.00;94131.00;;;;7393413;19;20136;-79
2022/08/04 08:27:26;;;;;;;2.38;2.20;;;;;34.10;94125.00;;;;7391717;19;20156;-78
2022/08/04 08:30:00;;;;;;;3.15;2.40;;;;;33.90;94130.00;;;;7394061;19;20147;-76
2022/08/04 08:32:30;;;;;;;8.48;2.75;;;;;34.00;94129.00;;;;7395303;19;20129;-77
2022/08/04 08:34:58;;;;;;;3.13;2.50;;;;;34.00;94123.00;;;;7393692;19;20132;-78
2022/08/04 08:37:47;;;;;;;2.53;2.20;;;;;33.90;94130.00;;;;7388630;19;20211;-79
2022/08/04 08:40:49;;;;;;;3.22;2.33;;;;;34.20;94128.00;;;;7393036;19;20595;-77
2022/08/04 08:43:41;;;;;;;4.93;2.45;;;;;34.20;94132.00;;;;7388644;19;20139;-76
2022/08/04 08:46:45;;;;;;;2.92;2.40;;;;;34.50;94129.00;;;;7391423;19;20169;-77
2022/08/04 08:49:44;;;;;;;4.50;2.30;;;;;34.40;94137.00;;;;7389801;19;20757;-78
2022/08/04 08:52:52;;;;;;;2.92;2.28;;;;;34.60;94136.00;;;;7392284;19;20191;-77
2022/08/04 08:55:55;;;;;;;4.28;2.65;;;;;34.90;94133.00;;;;7390451;19;20128;-78
2022/08/04 08:58:38;;;;;;;3.97;2.42;;;;;34.90;94126.00;;;;7392342;19;20136;-77
2022/08/04 09:01:35;;;;;;;5.57;2.40;;;;;34.80;94134.00;;;;7390324;19;20159;-78
2022/08/04 09:04:43;;;;;;;2.85;2.30;;;;;35.20;94142.00;;;;7391504;19;20911;-77
2022/08/04 09:07:31;;;;;;;3.75;2.03;;;;;35.20;94143.00;;;;7388192;19;20618;-77
2022/08/04 09:10:12;;;;;;;2.55;2.35;;;;;35.10;94135.00;;;;7391237;19;20152;-78
2022/08/04 09:13:07;;;;;;;3.97;2.25;;;;;34.80;94135.00;;;;7390086;19;20152;-78
2022/08/04 09:15:45;;;;;;;2.75;2.38;;;;;35.20;94137.00;;;;7388887;19;20220;-79
2022/08/04 09:18:35;;;;;;;2.97;2.40;;;;;35.30;94137.00;;;;7390993;19;20272;-78
2022/08/04 09:21:16;;;;;;;2.78;2.13;;;;;35.10;94157.00;;;;7391446;19;20591;-77
2022/08/04 09:24:21;;;;;;;3.40;2.22;;;;;34.50;94150.00;;;;7391559;19;20610;-77
2022/08/04 09:27:19;;;;;;;3.10;2.80;;;;;35.40;94148.00;;;;7390269;19;20135;-77
2022/08/04 09:30:06;;;;;;;4.28;2.30;;;;;36.00;94139.00;;;;7391057;19;20496;-79
2022/08/04 09:33:03;;;;;;;5.22;2.80;;;;;36.10;94152.00;;;;7392608;19;20219;-77
2022/08/04 09:35:55;;;;;;;3.92;2.25;;;;;35.70;94131.00;;;;7389643;19;20144;-77
2022/08/04 09:38:37;;;;;;;2.72;2.33;;;;;35.40;94157.00;;;;7388640;19;20180;-79
2022/08/04 09:41:29;;;;;;;6.25;2.70;;;;;34.20;94162.00;;;;7391323;19;20135;-78
2022/08/04 09:44:30;;;;;;;2.60;2.40;;;;;33.40;94164.00;;;;7390945;19;20147;-76
2022/08/04 09:47:40;;;;;;;3.40;2.55;;;;;33.10;94169.00;;;;7389181;19;20152;-76
2022/08/04 09:50:33;;;;;;;4.00;2.83;;;;;33.00;94162.00;;;;7393059;19;20132;-78
2022/08/04 09:53:44;;;;;;;3.40;2.25;;;;;32.60;94169.00;;;;7390556;19;20129;-78
2022/08/04 09:57:06;;;;;;;4.63;2.42;;;;;32.50;94172.00;;;;7389032;19;20155;-76
2022/08/04 10:00:03;;;;;;;6.70;2.50;;;;;32.30;94178.00;;;;7388825;19;20159;-79
2022/08/04 10:02:46;;;;;;;3.78;2.58;;;;;32.00;94177.00;;;;7389378;19;20175;-77
2022/08/04 10:05:24;;;;;;;4.10;2.22;;;;;31.70;94179.00;;;;7390838;19;20487;-75
2022/08/04 10:08:31;;;;;;;4.20;2.70;;;;;31.60;94178.00;;;;7388177;19;20706;-77
2022/08/04 10:11:27;;;;;;;5.00;2.58;;;;;31.60;94161.00;;;;7389013;19;20149;-79
2022/08/04 10:14:12;;;;;;;7.57;2.50;;;;;32.40;94163.00;;;;7390572;19;20133;-79
2022/08/04 10:17:31;;;;;;;8.60;2.60;;;;;33.30;94145.00;;;;7385789;19;20215;-78
2022/08/04 10:20:23;;;;;;;7.47;2.50;;;;;34.10;94145.00;;;;7387644;19;20488;-77
2022/08/04 10:23:45;;;;;;;3.58;2.63;;;;;34.60;94155.00;;;;7390652;19;20128;-79
2022/08/04 10:26:42;;;;;;;5.13;2.50;;;;;34.90;94136.00;;;;7395557;19;20145;-80
2022/08/04 10:29:44;;;;;;;3.10;2.70;;;;;35.50;94124.00;;;;7397941;19;20127;-78
2022/08/04 10:32:26;;;;;;;2.90;2.60;;;;;35.50;94133.00;;;;7398671;19;20157;-77
2022/08/04 10:35:12;;;;;;;5.72;2.67;;;;;36.00;94130.00;;;;7397042;19;20152;-81
2022/08/04 10:37:46;;;;;;;3.55;2.40;;;;;36.70;94116.00;;;;7393535;19;20144;-79
2022/08/04 10:40:56;;;;;;;5.53;2.92;;;;;37.30;94120.00;;;;7399148;19;20132;-78
2022/08/04 10:43:56;;;;;;;2.83;2.35;;;;;36.90;94114.00;;;;7395805;19;20152;-79
2022/08/04 10:46:36;;;;;;;2.70;2.50;;;;;37.30;94114.00;;;;7398170;19;20489;-79
2022/08/04 10:49:13;;;;;;;6.55;2.47;;;;;36.90;94139.00;;;;7394147;19;20152;-77
2022/08/04 10:52:00;;;;;;;4.18;2.67;;;;;35.80;94128.00;;;;7397500;19;20178;-79
2022/08/04 10:54:48;;;;;;;4.45;2.90;;;;;35.50;94123.00;;;;7399093;19;20195;-78
2022/08/04 10:57:34;;;;;;;5.32;2.45;;;;;36.70;94121.00;;;;7393059;19;20174;-77
2022/08/04 11:00:07;;;;;;;2.78;2.58;;;;;37.70;94114.00;;;;7398190;19;20207;-77
2022/08/04 11:03:07;;;;;;;2.70;2.50;;;;;38.20;94121.00;;;;7393123;19;20192;-80
2022/08/04 11:05:49;;;;;;;5.63;2.65;;;;;38.50;94118.00;;;;7396790;19;20132;-77
2022/08/04 11:08:34;;;;;;;5.65;2.85;;;;;37.20;94144.00;;;;7396343;19;20472;-78
2022/08/04 11:11:19;;;;;;;2.75;2.50;;;;;35.70;94139.00;;;;7394267;19;20148;-78
2022/08/04 11:13:56;;;;;;;3.05;2.50;;;;;35.10;94143.00;;;;7395586;19;20603;-78
2022/08/04 11:16:38;;;;;;;3.30;2.90;;;;;35.70;94128.00;;;;7394412;19;20227;-77
2022/08/04 11:20:01;;;;;;;3.28;2.50;;;;;35.80;94146.00;;;;7392931;19;20232;-78
2022/08/04 11:23:10;;;;;;;4.65;2.60;;;;;35.90;94148.00;;;;7394183;19;20144;-78
2022/08/04 11:26:11;;;;;;;2.85;2.65;;;;;34.90;94155.00;;;;7395057;19;20164;-78
2022/08/04 11:29:08;;;;;;;4.95;3.17;;;;;34.20;94147.00;;;;7393236;19;20237;-78
2022/08/04 11:31:48;;;;;;;5.00;2.70;;;;;33.90;94157.00;;;;7395131;19;20155;-79
2022/08/04 11:34:23;;;;;;;3.30;2.58;;;;;33.90;94141.00;;;;7394560;19;20164;-78
2022/08/04 11:37:00;;;;;;;2.70;2.50;;;;;35.20;94130.00;;;;7394144;19;20624;-78
2022/08/04 11:39:47;;;;;;;2.75;2.55;;;;;35.00;94151.00;;;;7393840;19;20143;-77
2022/08/04 11:42:37;;;;;;;3.25;2.38;;;;;35.00;94127.00;;;;7394705;19;20132;-76
2022/08/04 11:45:18;;;;;;;2.67;2.47;;;;;35.70;94149.00;;;;7396879;19;20136;-78
2022/08/04 11:48:31;;;;;;;2.60;2.40;;;;;36.30;94152.00;;;;7397726;19;20607;-76
2022/08/04 11:51:04;;;;;;;2.60;2.40;;;;;35.50;94150.00;;;;7394732;19;20223;-78
2022/08/04 11:53:41;;;;;;;2.95;2.60;;;;;35.20;94150.00;;;;7396802;19;20598;-79
2022/08/04 11:56:12;;;;;;;3.10;2.28;;;;;34.80;94154.00;;;;7394889;19;20587;-77
2022/08/04 11:59:08;;;;;;;4.90;2.45;;;;;35.40;94134.00;;;;7392629;19;20614;-78
2022/08/04 12:02:13;;;;;;;5.55;2.70;;;;;36.60;94121.00;;;;7393789;19;20493;-77
2022/08/04 12:05:03;;;;;;;2.50;2.30;;;;;36.50;94137.00;;;;7392106;19;20136;-78
2022/08/04 12:07:57;;;;;;;2.60;2.40;;;;;35.50;94147.00;;;;7393465;19;20505;-79
2022/08/04 12:11:00;;;;;;;3.63;2.90;;;;;33.70;94148.00;;;;7394126;19;20128;-80
2022/08/04 12:13:59;;;;;;;3.20;2.38;;;;;33.70;94131.00;;;;7393120;19;20128;-77
2022/08/04 12:16:49;;;;;;;3.38;2.38;;;;;35.30;94145.00;;;;7393671;19;21082;-79
2022/08/04 12:19:35;;;;;;;2.50;2.30;;;;;35.20;94133.00;;;;7390351;19;20513;-77
2022/08/04 12:22:41;;;;;;;2.97;2.60;;;;;35.70;94141.00;;;;7395362;19;20132;-77
2022/08/04 12:25:16;;;;;;;3.42;2.50;;;;;36.00;94137.00;;;;7393141;19;20131;-77
2022/08/04 12:28:10;;;;;;;2.70;2.50;;;;;35.80;94139.00;;;;7393210;19;20148;-79
2022/08/04 12:30:48;;;;;;;2.65;2.30;;;;;34.80;94130.00;;;;7395173;19;20606;-78
2022/08/04 12:33:59;;;;;;;4.38;2.58;;;;;35.60;94119.00;;;;7392821;19;20148;-79
2022/08/04 12:36:35;;;;;;;2.42;2.22;;;;;36.60;94115.00;;;;7393190;19;20747;-78
2022/08/04 12:39:18;;;;;;;3.45;2.53;;;;;36.50;94112.00;;;;7392345;19;20146;-78
2022/08/04 12:42:12;;;;;;;5.55;2.92;;;;;36.50;94116.00;;;;7392116;19;20143;-76
2022/08/04 12:44:53;;;;;;;3.22;2.38;;;;;36.50;94111.00;;;;7392302;19;20139;-78
2022/08/04 12:47:26;;;;;;;2.60;2.40;;;;;36.60;94109.00;;;;7391425;19;20140;-79
2022/08/04 12:50:03;;;;;;;3.75;2.33;;;;;36.30;94107.00;;;;7394386;19;20619;-78
2022/08/04 12:52:43;;;;;;;4.68;2.70;;;;;36.80;94109.00;;;;7392426;19;20128;-76
2022/08/04 12:55:35;;;;;;;2.60;2.40;;;;;36.80;94099.00;;;;7394321;19;20736;-75
2022/08/04 12:58:14;;;;;;;4.38;2.70;;;;;36.60;94113.00;;;;7392623;19;20610;-79
2022/08/04 13:01:20;;;;;;;2.88;2.50;;;;;37.00;94111.00;;;;7389917;19;20663;-77
2022/08/04 13:04:22;;;;;;;2.60;2.40;;;;;37.00;94105.00;;;;7391183;19;20135;-78
2022/08/04 13:07:05;;;;;;;3.75;2.35;;;;;37.10;94104.00;;;;7388678;19;20524;-76
2022/08/04 13:09:36;;;;;;;4.03;2.47;;;;;37.30;94105.00;;;;7389665;19;20139;-77
2022/08/04 13:12:16;;;;;;;4.43;2.40;;;;;37.20;94107.00;;;;7389151;19;20140;-78
2022/08/04 13:14:48;;;;;;;2.85;2.58;;;;;37.40;94108.00;;;;7389514;19;20591;-79
2022/08/04 13:17:58;;;;;;;5.97;2.53;;;;;37.40;94100.00;;;;7391209;19;20136;-79
2022/08/04 13:20:38;;;;;;;2.60;2.40;;;;;37.30;94104.00;;;;7389623;19;20172;-77
2022/08/04 13:23:16;;;;;;;4.00;2.30;;;;;37.80;94099.00;;;;7390227;19;20705;-76
2022/08/04 13:25:52;;;;;;;3.88;2.20;;;;;38.00;94094.00;;;;7392001;19;20151;-77
2022/08/04 13:28:51;;;;;;;2.75;2.40;;;;;37.90;94096.00;;;;7389404;19;20151;-76
2022/08/04 13:31:25;;;;;;;2.60;2.40;;;;;38.00;94090.00;;;;7387216;19;20140;-77
2022/08/04 13:34:08;;;;;;;3.42;2.08;;;;;37.80;94094.00;;;;7391773;19;20151;-78
2022/08/04 13:36:53;;;;;;;2.33;2.13;;;;;37.30;94087.00;;;;7389154;19;20155;-79
2022/08/04 13:39:29;;;;;;;2.60;2.40;;;;;37.10;94105.00;;;;7387803;19;20163;-77
2022/08/04 13:42:02;;;;;;;3.75;2.70;;;;;36.10;94104.00;;;;7390620;19;20136;-77
2022/08/04 13:44:40;;;;;;;4.22;2.70;;;;;35.30;94104.00;;;;7394438;19;20140;-80
2022/08/04 13:47:26;;;;;;;4.63;2.72;;;;;34.50;94100.00;;;;7388722;19;20125;-77
2022/08/04 13:50:19;;;;;;;3.47;2.42;;;;;34.20;94098.00;;;;7389846;19;20136;-79
2022/08/04 13:52:52;;;;;;;4.32;2.35;;;;;33.70;94107.00;;;;7388281;19;20601;-79
2022/08/04 13:55:37;;;;;;;7.65;2.70;;;;;33.60;94106.00;;;;7389288;19;20163;-77
2022/08/04 13:58:20;;;;;;;2.60;2.40;;;;;33.70;94090.00;;;;7389214;19;20160;-78